Time;durP1;ratioP1;P1;durP2;ratioP2;P2;SDS_P1;SDS_P2;PMS_P1;PMS_P2;Temp;Humidity;BMP_temperature;BMP_pressure;BME280_temperature;BME280_humidity;BME280_pressure;Samples;Min_cycle;Max_cycle;Signal;HPM_P1;HPM_P2
2022/11/26 00:00:24;;;;;;;30.07;16.40;;;5.30;99.90;;;;;;5030329;28;20210;-77
2022/11/26 00:02:51;;;;;;;25.13;16.87;;;5.20;99.90;;;;;;5061427;23;20229;-76
2022/11/26 00:05:18;;;;;;;24.70;18.67;;;5.30;99.90;;;;;;5034827;28;20266;-77
2022/11/26 00:07:53;;;;;;;26.03;16.07;;;5.30;99.90;;;;;;5052995;28;20202;-80
2022/11/26 00:10:28;;;;;;;25.80;18.60;;;5.30;99.90;;;;;;5057487;28;20224;-75
2022/11/26 00:12:55;;;;;;;26.67;18.93;;;5.30;99.90;;;;;;5034963;28;20204;-77
2022/11/26 00:15:31;;;;;;;27.87;17.77;;;5.30;99.90;;;;;;5035623;28;20734;-77
2022/11/26 00:17:57;;;;;;;25.77;18.53;;;5.30;99.90;;;;;;5035304;28;20181;-77
2022/11/26 00:20:29;;;;;;;25.80;18.60;;;5.30;99.90;;;;;;5034280;28;20208;-76
2022/11/26 00:23:03;;;;;;;23.93;18.23;;;5.30;99.90;;;;;;5054186;28;20198;-78
2022/11/26 00:25:42;;;;;;;33.93;18.23;;;5.20;99.90;;;;;;5061013;28;20194;-76
2022/11/26 00:28:35;;;;;;;31.87;16.80;;;5.20;99.90;;;;;;5059914;28;20185;-77
2022/11/26 00:31:11;;;;;;;23.23;18.00;;;5.30;99.90;;;;;;5054294;28;20208;-77
2022/11/26 00:33:36;;;;;;;28.33;16.97;;;5.20;99.90;;;;;;5052996;28;20201;-77
2022/11/26 00:36:30;;;;;;;33.97;24.53;;;5.20;99.90;;;;;;5034375;28;20174;-77
2022/11/26 00:39:00;;;;;;;32.20;25.50;;;5.30;99.90;;;;;;5036322;28;20187;-77
2022/11/26 00:41:31;;;;;;;33.87;26.73;;;5.30;99.90;;;;;;5058167;28;20562;-78
2022/11/26 00:43:57;;;;;;;37.53;25.83;;;5.30;99.90;;;;;;5040157;28;20193;-78
2022/11/26 00:46:23;;;;;;;26.63;23.87;;;5.30;99.90;;;;;;5044403;28;20182;-77
2022/11/26 00:48:50;;;;;;;24.30;18.27;;;5.30;99.90;;;;;;5043883;28;20206;-76
2022/11/26 00:51:23;;;;;;;21.47;16.10;;;5.20;99.90;;;;;;5042287;28;20698;-76
2022/11/26 00:53:52;;;;;;;31.40;22.20;;;5.20;99.90;;;;;;5061743;28;20202;-77
2022/11/26 00:56:19;;;;;;;25.73;21.00;;;5.20;99.90;;;;;;5055615;28;20269;-78
2022/11/26 00:58:47;;;;;;;27.03;23.30;;;5.20;99.90;;;;;;5036623;28;20745;-78
2022/11/26 01:01:16;;;;;;;22.40;15.87;;;5.30;99.90;;;;;;5039073;28;20387;-76
2022/11/26 01:03:42;;;;;;;22.60;17.03;;;5.20;99.90;;;;;;5043685;28;20233;-76
2022/11/26 01:06:31;;;;;;;23.87;21.63;;;5.30;99.90;;;;;;5042170;28;20528;-77
2022/11/26 01:08:57;;;;;;;26.27;23.43;;;5.40;99.90;;;;;;5036645;28;20201;-78
2022/11/26 01:11:23;;;;;;;26.40;23.77;;;5.30;99.90;;;;;;5036796;28;20251;-78
2022/11/26 01:13:52;;;;;;;24.27;21.07;;;5.40;99.90;;;;;;5040215;28;20194;-76
2022/11/26 01:16:23;;;;;;;25.50;22.23;;;5.40;99.90;;;;;;5044899;28;20188;-78
2022/11/26 01:18:51;;;;;;;22.57;20.37;;;5.40;99.90;;;;;;5054592;28;20635;-78
2022/11/26 01:21:18;;;;;;;24.43;22.23;;;5.50;99.90;;;;;;5054681;28;20277;-78
2022/11/26 01:23:44;;;;;;;27.20;24.67;;;5.50;99.90;;;;;;5036839;28;20214;-78
2022/11/26 01:26:19;;;;;;;19.20;15.70;;;5.50;99.90;;;;;;5038882;28;20586;-78
2022/11/26 01:28:45;;;;;;;18.77;15.63;;;5.50;99.90;;;;;;5040283;28;20332;-77
2022/11/26 01:31:17;;;;;;;20.97;16.60;;;5.60;99.90;;;;;;5040117;28;20198;-78
2022/11/26 01:33:44;;;;;;;20.00;18.07;;;5.60;99.90;;;;;;5039735;28;20205;-77
2022/11/26 01:36:29;;;;;;;24.53;17.10;;;5.60;99.90;;;;;;5040257;28;20189;-78
2022/11/26 01:39:01;;;;;;;19.27;13.97;;;5.60;99.90;;;;;;5041449;28;20190;-78
2022/11/26 01:41:48;;;;;;;21.17;15.50;;;5.60;99.90;;;;;;5040101;28;20182;-77
2022/11/26 01:44:23;;;;;;;21.10;16.63;;;5.60;99.90;;;;;;5058116;28;20566;-78
2022/11/26 01:46:51;;;;;;;18.90;16.73;;;5.60;99.90;;;;;;5039546;28;20236;-78
2022/11/26 01:49:26;;;;;;;19.00;14.17;;;5.60;99.90;;;;;;5061594;28;20210;-76
2022/11/26 01:52:00;;;;;;;20.93;15.23;;;5.60;99.90;;;;;;5040879;28;20209;-78
2022/11/26 01:54:26;;;;;;;22.63;18.50;;;5.70;99.90;;;;;;5055162;28;20205;-77
2022/11/26 01:56:55;;;;;;;20.70;18.57;;;5.70;99.90;;;;;;5038464;28;20220;-77
2022/11/26 01:59:23;;;;;;;24.40;19.70;;;5.70;99.90;;;;;;5057548;28;20529;-78
2022/11/26 02:01:51;;;;;;;19.77;16.23;;;5.70;99.90;;;;;;5039961;28;20697;-78
2022/11/26 02:04:27;;;;;;;31.87;29.17;;;5.70;99.90;;;;;;5039836;28;20182;-78
2022/11/26 02:06:54;;;;;;;46.40;43.17;;;5.70;99.90;;;;;;5056942;28;20186;-78
2022/11/26 02:09:22;;;;;;;47.13;44.10;;;5.70;99.90;;;;;;5039452;28;20206;-76
2022/11/26 02:11:48;;;;;;;51.30;47.83;;;5.70;99.90;;;;;;5042353;28;20255;-78
2022/11/26 02:14:22;;;;;;;58.03;53.80;;;5.80;99.90;;;;;;5039611;28;20186;-78
2022/11/26 02:16:54;;;;;;;26.53;24.13;;;5.80;99.90;;;;;;5037163;28;20716;-77
2022/11/26 02:19:57;;;;;;;18.77;16.87;;;5.80;99.90;;;;;;5036758;28;20187;-77
2022/11/26 02:22:44;;;;;;;60.00;55.70;;;5.80;99.90;;;;;;5037173;28;20205;-78
2022/11/26 02:25:43;;;;;;;35.43;32.60;;;5.70;99.90;;;;;;5037925;28;20248;-78
2022/11/26 02:28:57;;;;;;;24.60;19.67;;;5.70;99.90;;;;;;5055205;28;20182;-78
2022/11/26 02:31:42;;;;;;;19.77;17.00;;;5.70;99.90;;;;;;5032710;28;20232;-79
2022/11/26 02:34:20;;;;;;;18.90;17.00;;;5.80;99.90;;;;;;5037587;28;20269;-78
2022/11/26 02:36:59;;;;;;;22.30;17.20;;;5.80;99.90;;;;;;5053950;28;20232;-77
2022/11/26 02:39:27;;;;;;;26.00;18.10;;;5.80;99.90;;;;;;5055173;28;20181;-79
2022/11/26 02:41:59;;;;;;;22.33;16.17;;;5.80;99.90;;;;;;5037547;28;20198;-79
2022/11/26 02:44:39;;;;;;;24.53;16.37;;;5.80;99.90;;;;;;5039569;28;20686;-77
2022/11/26 02:47:09;;;;;;;26.30;21.13;;;5.80;99.90;;;;;;5039689;28;20210;-77
2022/11/26 02:49:37;;;;;;;23.50;21.10;;;5.80;99.90;;;;;;5039488;28;20295;-78
2022/11/26 02:52:05;;;;;;;20.17;16.67;;;5.80;99.90;;;;;;5037230;28;20213;-79
2022/11/26 02:54:32;;;;;;;21.50;15.57;;;5.80;99.90;;;;;;5036081;28;20659;-78
2022/11/26 02:57:01;;;;;;;22.00;19.30;;;5.80;99.90;;;;;;5035954;28;20558;-77
2022/11/26 02:59:27;;;;;;;22.27;15.07;;;5.80;99.90;;;;;;5035791;28;20209;-78
2022/11/26 03:01:59;;;;;;;17.90;15.23;;;5.80;99.90;;;;;;5053656;28;20198;-78
2022/11/26 03:04:31;;;;;;;21.47;19.23;;;5.90;99.90;;;;;;5035778;28;20205;-77
2022/11/26 03:07:00;;;;;;;19.73;17.70;;;5.90;99.90;;;;;;5040850;28;20238;-78
2022/11/26 03:09:27;;;;;;;23.20;20.93;;;5.90;99.90;;;;;;5046714;28;20236;-76
2022/11/26 03:11:52;;;;;;;21.17;17.30;;;5.90;99.90;;;;;;5060709;28;20205;-78
2022/11/26 03:14:18;;;;;;;19.10;17.00;;;5.90;99.90;;;;;;5059633;28;20174;-76
2022/11/26 03:16:44;;;;;;;17.40;15.57;;;5.90;99.90;;;;;;5043111;28;20186;-77
2022/11/26 03:19:10;;;;;;;18.40;14.73;;;6.00;99.90;;;;;;5054854;28;20185;-78
2022/11/26 03:21:35;;;;;;;18.70;14.63;;;6.00;99.90;;;;;;5039995;28;20553;-77
2022/11/26 03:24:01;;;;;;;17.53;15.67;;;5.90;99.90;;;;;;5046655;28;20194;-78
2022/11/26 03:26:27;;;;;;;19.47;13.63;;;5.90;99.90;;;;;;5036617;28;20658;-78
2022/11/26 03:28:53;;;;;;;15.43;13.83;;;5.90;99.90;;;;;;5036463;28;20263;-78
2022/11/26 03:31:18;;;;;;;20.30;17.67;;;5.90;99.90;;;;;;5036143;28;20185;-78
2022/11/26 03:33:44;;;;;;;21.23;19.37;;;5.90;99.90;;;;;;5035864;28;20209;-77
2022/11/26 03:36:10;;;;;;;21.33;18.57;;;5.90;99.90;;;;;;5054169;28;20178;-78
2022/11/26 03:38:36;;;;;;;24.47;21.83;;;5.90;99.90;;;;;;5035441;28;20178;-78
2022/11/26 03:41:03;;;;;;;21.77;19.97;;;5.90;99.90;;;;;;5053529;28;20667;-78
2022/11/26 03:43:28;;;;;;;24.37;22.23;;;6.00;99.90;;;;;;5053261;28;20202;-78
2022/11/26 03:45:55;;;;;;;20.43;17.93;;;6.00;99.90;;;;;;5053224;28;20607;-78
2022/11/26 03:48:21;;;;;;;16.70;14.87;;;6.00;99.90;;;;;;5057125;28;20182;-77
2022/11/26 03:50:47;;;;;;;17.53;14.53;;;6.00;99.90;;;;;;5043647;28;20650;-77
2022/11/26 03:53:13;;;;;;;18.73;15.27;;;6.00;99.90;;;;;;5039767;28;20681;-77
2022/11/26 03:55:39;;;;;;;20.00;17.97;;;6.00;99.90;;;;;;5037946;28;20233;-78
2022/11/26 03:58:04;;;;;;;16.97;15.27;;;6.00;99.90;;;;;;5053334;28;20208;-78
2022/11/26 04:00:30;;;;;;;35.57;33.00;;;6.00;99.90;;;;;;5035459;28;20178;-78
2022/11/26 04:02:56;;;;;;;37.93;34.93;;;6.00;99.90;;;;;;5035072;28;20252;-78
2022/11/26 04:05:22;;;;;;;20.20;15.77;;;5.90;99.90;;;;;;5046111;28;20187;-78
2022/11/26 04:07:47;;;;;;;15.83;14.23;;;6.00;99.90;;;;;;5043824;28;20209;-78
2022/11/26 04:10:13;;;;;;;17.47;15.60;;;6.00;99.90;;;;;;5037374;28;20218;-76
2022/11/26 04:12:39;;;;;;;20.40;18.17;;;6.00;99.90;;;;;;5040490;28;20208;-76
2022/11/26 04:15:05;;;;;;;19.13;15.80;;;6.00;99.90;;;;;;5059932;28;20192;-77
2022/11/26 04:17:31;;;;;;;21.13;18.90;;;6.00;99.90;;;;;;5043494;28;20201;-77
2022/11/26 04:19:56;;;;;;;24.63;20.57;;;6.10;99.90;;;;;;5066948;28;20190;-76
2022/11/26 04:22:22;;;;;;;17.93;16.13;;;6.10;99.90;;;;;;5048877;28;20262;-76
2022/11/26 04:24:48;;;;;;;21.67;19.50;;;6.10;99.90;;;;;;5057054;28;20638;-77
2022/11/26 04:27:14;;;;;;;18.40;15.47;;;6.00;99.90;;;;;;5037957;28;20643;-78
2022/11/26 04:29:40;;;;;;;18.93;15.03;;;6.10;99.90;;;;;;5034693;28;20681;-77
2022/11/26 04:32:05;;;;;;;23.53;14.93;;;6.10;99.90;;;;;;5051672;28;20240;-78
2022/11/26 04:34:31;;;;;;;30.53;27.83;;;6.00;99.90;;;;;;5051914;28;20861;-78
2022/11/26 04:36:57;;;;;;;39.27;36.07;;;6.00;99.90;;;;;;5051358;28;20559;-77
2022/11/26 04:39:23;;;;;;;46.70;43.37;;;6.00;99.90;;;;;;5034032;28;20549;-78
2022/11/26 04:41:48;;;;;;;44.63;41.47;;;6.00;99.90;;;;;;5051487;28;20265;-77
2022/11/26 04:44:14;;;;;;;22.63;20.40;;;6.00;99.90;;;;;;5051601;28;20186;-76
2022/11/26 04:46:40;;;;;;;17.50;15.20;;;6.00;99.90;;;;;;5033873;28;20179;-76
2022/11/26 04:49:06;;;;;;;18.63;15.73;;;6.00;99.90;;;;;;5033685;28;20714;-76
2022/11/26 04:51:32;;;;;;;18.67;16.17;;;6.00;99.90;;;;;;5051571;28;20166;-76
2022/11/26 04:53:58;;;;;;;17.30;14.30;;;6.00;99.90;;;;;;5051753;28;20178;-77
2022/11/26 04:56:23;;;;;;;21.07;19.03;;;6.00;99.90;;;;;;5033822;28;20658;-77
2022/11/26 04:58:49;;;;;;;17.83;14.00;;;6.00;99.90;;;;;;5052091;28;20292;-78
2022/11/26 05:01:16;;;;;;;19.73;18.03;;;6.00;99.90;;;;;;5037107;28;20210;-79
2022/11/26 05:03:42;;;;;;;18.93;17.17;;;6.00;99.90;;;;;;5059796;28;20217;-79
2022/11/26 05:06:08;;;;;;;15.70;13.40;;;6.00;99.90;;;;;;5046492;28;20178;-79
2022/11/26 05:08:33;;;;;;;15.97;14.13;;;6.00;99.90;;;;;;5060015;28;20244;-78
2022/11/26 05:11:01;;;;;;;17.33;14.03;;;6.00;99.90;;;;;;5058117;28;20269;-80
2022/11/26 05:13:28;;;;;;;16.73;15.13;;;6.00;99.90;;;;;;5054570;28;20292;-79
2022/11/26 05:15:56;;;;;;;18.13;16.00;;;6.00;99.90;;;;;;5048846;28;20584;-79
2022/11/26 05:18:21;;;;;;;14.87;13.00;;;6.00;99.90;;;;;;5056098;28;20559;-80
2022/11/26 05:20:47;;;;;;;18.63;16.73;;;6.00;99.90;;;;;;5056641;28;20188;-79
2022/11/26 05:23:13;;;;;;;22.67;20.67;;;6.00;99.90;;;;;;5038549;28;20206;-78
2022/11/26 05:25:39;;;;;;;24.43;22.20;;;6.00;99.90;;;;;;5039348;28;20182;-78
2022/11/26 05:28:05;;;;;;;19.90;18.07;;;6.00;99.90;;;;;;5042794;28;20695;-79
2022/11/26 05:30:31;;;;;;;21.87;19.50;;;5.90;99.90;;;;;;5067715;28;20209;-77
2022/11/26 05:32:56;;;;;;;21.47;19.47;;;6.00;99.90;;;;;;5051455;28;20240;-79
2022/11/26 05:35:22;;;;;;;15.30;13.67;;;5.90;99.90;;;;;;5048292;28;20622;-79
2022/11/26 05:37:48;;;;;;;28.00;25.90;;;5.90;99.90;;;;;;5049880;28;20189;-78
2022/11/26 05:40:14;;;;;;;38.40;35.43;;;5.80;99.90;;;;;;5065529;28;20186;-77
2022/11/26 05:42:40;;;;;;;33.77;31.40;;;5.80;99.90;;;;;;5039615;28;20220;-79
2022/11/26 05:45:06;;;;;;;43.53;40.50;;;5.70;99.90;;;;;;5057827;28;20627;-79
2022/11/26 05:47:31;;;;;;;19.80;17.77;;;5.70;99.90;;;;;;5056931;28;20292;-79
2022/11/26 05:49:57;;;;;;;24.90;15.53;;;5.70;99.90;;;;;;5055823;28;20217;-72
2022/11/26 05:52:23;;;;;;;19.87;15.77;;;5.80;99.90;;;;;;5055261;28;20229;-72
2022/11/26 05:54:49;;;;;;;22.33;20.10;;;5.80;99.90;;;;;;5053607;28;20183;-72
2022/11/26 05:57:16;;;;;;;24.23;21.93;;;5.80;99.90;;;;;;5035348;28;20178;-72
2022/11/26 05:59:41;;;;;;;19.87;18.07;;;5.80;99.90;;;;;;5035719;28;20190;-70
2022/11/26 06:02:07;;;;;;;22.43;20.37;;;5.80;99.90;;;;;;5053161;28;20210;-73
2022/11/26 06:04:33;;;;;;;24.37;22.27;;;5.80;99.90;;;;;;5035245;28;20183;-72
2022/11/26 06:06:58;;;;;;;19.50;17.50;;;5.80;99.90;;;;;;5053186;28;20247;-72
2022/11/26 06:09:24;;;;;;;17.60;15.63;;;5.80;99.90;;;;;;5035262;28;20213;-72
2022/11/26 06:11:50;;;;;;;16.50;14.70;;;5.70;99.90;;;;;;5034796;28;20222;-72
2022/11/26 06:14:17;;;;;;;20.77;18.70;;;5.70;99.90;;;;;;5035462;28;20178;-72
2022/11/26 06:16:42;;;;;;;20.20;18.17;;;5.70;99.90;;;;;;5053111;28;20221;-72
2022/11/26 06:19:10;;;;;;;17.03;15.33;;;5.70;99.90;;;;;;5034775;28;20215;-72
2022/11/26 06:21:36;;;;;;;15.60;13.93;;;5.80;99.90;;;;;;5052944;28;20182;-71
2022/11/26 06:24:02;;;;;;;14.97;13.57;;;5.80;99.90;;;;;;5052824;28;20170;-72
2022/11/26 06:26:27;;;;;;;15.23;13.50;;;5.80;99.90;;;;;;5052766;28;20193;-72
2022/11/26 06:28:53;;;;;;;16.57;13.00;;;5.80;99.90;;;;;;5052412;28;20309;-72
2022/11/26 06:31:19;;;;;;;15.33;12.23;;;5.80;99.90;;;;;;5034200;28;20210;-72
2022/11/26 06:33:45;;;;;;;15.23;13.57;;;5.80;99.90;;;;;;5052910;28;20202;-73
2022/11/26 06:36:10;;;;;;;16.07;14.47;;;5.80;99.90;;;;;;5034954;28;20181;-72
2022/11/26 06:38:36;;;;;;;15.67;13.87;;;5.90;99.90;;;;;;5034828;28;20217;-74
2022/11/26 06:41:05;;;;;;;16.80;14.37;;;5.90;99.90;;;;;;5034836;28;20700;-71
2022/11/26 06:43:31;;;;;;;16.27;14.50;;;5.90;99.90;;;;;;5032674;28;20237;-72
2022/11/26 06:46:05;;;;;;;17.00;13.70;;;5.90;99.90;;;;;;5032490;28;20641;-72
2022/11/26 06:48:32;;;;;;;17.00;13.90;;;5.90;99.90;;;;;;5032594;28;20185;-70
2022/11/26 06:51:09;;;;;;;17.10;15.07;;;6.00;99.90;;;;;;5031125;28;20183;-71
2022/11/26 06:53:35;;;;;;;15.30;13.73;;;6.00;99.90;;;;;;5045785;28;20209;-71
2022/11/26 06:56:01;;;;;;;16.53;13.23;;;6.00;99.90;;;;;;5054553;28;20173;-71
2022/11/26 06:58:27;;;;;;;14.70;13.10;;;6.10;99.90;;;;;;5053977;28;20178;-70
2022/11/26 07:00:53;;;;;;;15.37;13.83;;;6.00;99.90;;;;;;5072378;28;20189;-71
2022/11/26 07:03:19;;;;;;;20.80;18.70;;;6.00;99.90;;;;;;5035427;28;20245;-72
2022/11/26 07:05:45;;;;;;;16.70;14.97;;;6.00;99.90;;;;;;5052182;28;20210;-71
2022/11/26 07:08:11;;;;;;;21.50;19.50;;;6.10;99.90;;;;;;5052130;28;20190;-71
2022/11/26 07:10:37;;;;;;;32.77;29.30;;;6.10;99.90;;;;;;5052021;28;20213;-71
2022/11/26 07:13:02;;;;;;;30.80;27.67;;;6.20;99.90;;;;;;5051379;28;20247;-71
2022/11/26 07:15:28;;;;;;;24.43;22.10;;;6.20;99.90;;;;;;5051959;28;20182;-69
2022/11/26 07:17:54;;;;;;;25.57;23.50;;;6.30;99.90;;;;;;5033988;28;20240;-69
2022/11/26 07:20:20;;;;;;;25.30;22.97;;;6.30;99.90;;;;;;5033930;28;20185;-71
2022/11/26 07:22:46;;;;;;;25.03;21.90;;;6.30;99.90;;;;;;5051322;28;20256;-70
2022/11/26 07:25:12;;;;;;;27.83;20.47;;;6.30;99.90;;;;;;5034029;28;20221;-72
2022/11/26 07:27:38;;;;;;;22.43;17.77;;;6.40;99.90;;;;;;5033486;28;20178;-70
2022/11/26 07:30:05;;;;;;;20.50;16.70;;;6.40;99.90;;;;;;5033860;28;20228;-70
2022/11/26 07:32:31;;;;;;;20.67;18.47;;;6.40;99.90;;;;;;5051588;28;20201;-71
2022/11/26 07:34:57;;;;;;;22.73;20.87;;;6.40;99.90;;;;;;5050975;28;20186;-71
2022/11/26 07:37:22;;;;;;;24.47;22.43;;;6.40;99.90;;;;;;5031979;28;20559;-71
2022/11/26 07:39:48;;;;;;;23.77;21.67;;;6.50;99.90;;;;;;5050528;28;20288;-71
2022/11/26 07:42:14;;;;;;;27.07;24.67;;;6.50;99.90;;;;;;5051379;28;20675;-72
2022/11/26 07:44:40;;;;;;;25.67;23.53;;;6.50;99.90;;;;;;5050573;28;20182;-70
2022/11/26 07:47:05;;;;;;;26.57;24.43;;;6.60;99.90;;;;;;5033684;28;20206;-71
2022/11/26 07:49:31;;;;;;;26.83;24.40;;;6.60;99.90;;;;;;5033899;28;20208;-70
2022/11/26 07:51:57;;;;;;;25.27;23.10;;;6.60;99.90;;;;;;5051454;28;20651;-70
2022/11/26 07:54:23;;;;;;;25.43;21.33;;;6.60;99.90;;;;;;5033868;28;20178;-70
2022/11/26 07:56:48;;;;;;;31.20;22.17;;;6.60;99.90;;;;;;5051257;28;20178;-70
2022/11/26 07:59:14;;;;;;;22.80;17.70;;;6.60;99.90;;;;;;5051469;28;20189;-70
2022/11/26 08:01:40;;;;;;;20.60;17.30;;;6.70;99.90;;;;;;5051132;28;20560;-70
2022/11/26 08:04:06;;;;;;;21.37;19.17;;;6.70;99.90;;;;;;5033729;28;20669;-70
2022/11/26 08:06:32;;;;;;;23.40;21.20;;;6.80;99.90;;;;;;5033740;28;20183;-70
2022/11/26 08:09:01;;;;;;;27.77;25.33;;;6.80;99.90;;;;;;5033304;28;20225;-70
2022/11/26 08:11:29;;;;;;;27.93;25.47;;;6.90;99.90;;;;;;5033318;28;20232;-70
2022/11/26 08:14:06;;;;;;;22.33;19.60;;;6.90;99.90;;;;;;5033472;28;20205;-70
2022/11/26 08:16:33;;;;;;;27.47;24.73;;;6.90;99.90;;;;;;5051308;28;20208;-71
2022/11/26 08:19:03;;;;;;;42.80;39.40;;;6.90;99.90;;;;;;5033166;28;20174;-70
2022/11/26 08:21:29;;;;;;;28.90;26.23;;;7.00;99.90;;;;;;5064371;28;20185;-70
2022/11/26 08:23:55;;;;;;;23.40;17.20;;;7.00;99.90;;;;;;5050768;28;20198;-70
2022/11/26 08:26:21;;;;;;;19.10;15.70;;;7.00;99.90;;;;;;5044142;28;20670;-70
2022/11/26 08:28:47;;;;;;;19.77;17.23;;;7.10;99.90;;;;;;5032346;28;20603;-70
2022/11/26 08:31:15;;;;;;;22.43;17.30;;;7.00;99.90;;;;;;5038697;28;20263;-71
2022/11/26 08:33:41;;;;;;;34.97;20.20;;;7.10;99.90;;;;;;5051044;28;20205;-69
2022/11/26 08:36:08;;;;;;;25.27;22.33;;;7.10;99.90;;;;;;5050992;28;20182;-70
2022/11/26 08:38:34;;;;;;;24.23;20.83;;;7.10;99.90;;;;;;5033135;28;20265;-73
2022/11/26 08:41:01;;;;;;;25.23;19.97;;;7.20;99.90;;;;;;5050542;28;20190;-70
2022/11/26 08:43:27;;;;;;;20.97;18.70;;;7.20;99.90;;;;;;5032452;28;20198;-69
2022/11/26 08:45:54;;;;;;;28.73;20.87;;;7.30;99.90;;;;;;5050644;28;20179;-70
2022/11/26 08:48:21;;;;;;;27.30;23.83;;;7.30;99.90;;;;;;5041553;28;20224;-70
2022/11/26 08:50:47;;;;;;;35.90;32.53;;;7.30;99.90;;;;;;5049475;28;20259;-71
2022/11/26 08:53:14;;;;;;;28.87;25.83;;;7.40;99.90;;;;;;5048722;28;20410;-70
2022/11/26 08:55:40;;;;;;;24.50;22.07;;;7.40;99.90;;;;;;5050958;28;20232;-73
2022/11/26 08:58:05;;;;;;;25.07;21.70;;;7.40;99.90;;;;;;5032811;28;20182;-69
2022/11/26 09:00:31;;;;;;;19.43;17.33;;;7.40;99.90;;;;;;5049477;28;20178;-72
2022/11/26 09:02:57;;;;;;;18.40;15.17;;;7.40;99.90;;;;;;5029555;28;20305;-72
2022/11/26 09:05:23;;;;;;;28.07;15.13;;;7.50;99.90;;;;;;5039979;28;20187;-71
2022/11/26 09:07:48;;;;;;;20.40;15.37;;;7.60;99.90;;;;;;5049991;28;20182;-71
2022/11/26 09:10:14;;;;;;;17.27;13.73;;;7.60;99.90;;;;;;5049826;28;20256;-69
2022/11/26 09:12:41;;;;;;;17.60;13.13;;;7.70;99.90;;;;;;5050407;28;20194;-70
2022/11/26 09:15:08;;;;;;;15.57;13.40;;;7.70;99.90;;;;;;5031619;28;20183;-69
2022/11/26 09:17:33;;;;;;;32.43;29.23;;;7.80;99.90;;;;;;5030909;28;20854;-69
2022/11/26 09:19:59;;;;;;;29.73;27.07;;;7.80;99.90;;;;;;5049861;28;20186;-69
2022/11/26 09:22:25;;;;;;;43.77;38.87;;;7.90;99.90;;;;;;5049415;28;20198;-70
2022/11/26 09:24:51;;;;;;;44.60;41.40;;;8.00;99.90;;;;;;5050192;28;20297;-70
2022/11/26 09:27:17;;;;;;;40.97;37.83;;;8.00;99.90;;;;;;5032404;28;20181;-69
2022/11/26 09:29:43;;;;;;;42.33;39.30;;;8.00;99.90;;;;;;5031338;28;20290;-68
2022/11/26 09:32:09;;;;;;;37.80;34.30;;;8.10;99.90;;;;;;5054950;28;20193;-69
2022/11/26 09:34:36;;;;;;;38.00;34.70;;;8.10;99.90;;;;;;5052345;28;20585;-69
2022/11/26 09:37:02;;;;;;;43.10;39.63;;;8.10;99.90;;;;;;5052330;28;20197;-68
2022/11/26 09:39:29;;;;;;;31.60;28.60;;;8.20;99.90;;;;;;5041035;28;20720;-69
2022/11/26 09:42:19;;;;;;;39.83;36.47;;;8.20;99.90;;;;;;5021914;28;20215;-69
2022/11/26 09:45:01;;;;;;;34.97;32.17;;;8.30;99.90;;;;;;5030273;28;20558;-68
2022/11/26 09:47:34;;;;;;;29.33;26.60;;;9.40;99.90;;;;;;5014053;28;20236;-68
2022/11/26 09:50:12;;;;;;;27.87;25.23;;;10.30;99.90;;;;;;5033809;28;20215;-69
2022/11/26 09:52:49;;;;;;;27.23;24.67;;;10.70;99.90;;;;;;5052062;28;20204;-68
2022/11/26 09:55:21;;;;;;;19.03;17.13;;;10.90;99.90;;;;;;5035500;28;20267;-68
2022/11/26 09:58:05;;;;;;;18.90;13.97;;;10.80;99.90;;;;;;5060681;28;20753;-68
2022/11/26 10:00:37;;;;;;;18.30;16.27;;;10.80;99.90;;;;;;5052879;28;20190;-70
2022/11/26 10:03:12;;;;;;;21.53;17.83;;;10.70;99.90;;;;;;5052020;28;20210;-73
2022/11/26 10:05:58;;;;;;;15.60;13.73;;;10.70;99.90;;;;;;5053363;28;20181;-68
2022/11/26 10:09:00;;;;;;;17.77;14.43;;;11.00;99.90;;;;;;5052796;28;20235;-70
2022/11/26 10:11:50;;;;;;;17.73;15.57;;;11.10;99.90;;;;;;5051732;28;20220;-69
2022/11/26 10:14:25;;;;;;;23.60;14.50;;;10.90;99.90;;;;;;5035924;28;20239;-69
2022/11/26 10:17:15;;;;;;;21.70;13.20;;;11.10;99.90;;;;;;5053540;28;20231;-72
2022/11/26 10:20:12;;;;;;;21.30;18.40;;;11.80;99.90;;;;;;5053479;28;20192;-69
2022/11/26 10:22:49;;;;;;;25.73;23.50;;;13.70;99.90;;;;;;5010226;28;20211;-69
2022/11/26 10:25:19;;;;;;;19.07;16.07;;;14.30;99.90;;;;;;5033209;28;20813;-70
2022/11/26 10:27:47;;;;;;;16.47;13.70;;;13.80;99.90;;;;;;5032863;28;20228;-70
2022/11/26 10:30:20;;;;;;;14.77;13.47;;;13.40;99.90;;;;;;5033155;28;20260;-69
2022/11/26 10:32:47;;;;;;;19.07;16.27;;;13.20;99.90;;;;;;5051200;28;20241;-70
2022/11/26 10:35:18;;;;;;;22.37;17.80;;;12.80;99.90;;;;;;5052779;28;20181;-70
2022/11/26 10:37:45;;;;;;;18.80;17.17;;;12.50;99.90;;;;;;5052592;28;20569;-69
2022/11/26 10:40:20;;;;;;;17.93;16.07;;;12.50;99.90;;;;;;5052898;28;20185;-69
2022/11/26 10:43:07;;;;;;;16.80;14.90;;;13.10;99.90;;;;;;5051504;28;20617;-69
2022/11/26 10:45:40;;;;;;;13.60;11.87;;;12.90;99.90;;;;;;5052858;28;20209;-69
2022/11/26 10:48:18;;;;;;;12.80;9.63;;;13.00;99.90;;;;;;5052688;28;20600;-69
2022/11/26 10:50:56;;;;;;;12.50;9.10;;;13.40;99.90;;;;;;5052823;28;20217;-68
2022/11/26 10:53:24;;;;;;;13.50;10.33;;;13.30;99.90;;;;;;5052361;28;20575;-69
2022/11/26 10:55:51;;;;;;;14.30;10.07;;;13.00;99.90;;;;;;5033882;28;20643;-69
2022/11/26 10:58:25;;;;;;;15.03;8.50;;;12.80;99.90;;;;;;5051273;28;20178;-69
2022/11/26 11:01:12;;;;;;;12.97;9.27;;;12.50;99.90;;;;;;5052689;28;20269;-70
2022/11/26 11:03:52;;;;;;;12.87;9.57;;;12.20;99.90;;;;;;5034521;28;20218;-68
2022/11/26 11:06:17;;;;;;;16.40;10.40;;;12.10;99.90;;;;;;5052650;28;20639;-70
2022/11/26 11:08:45;;;;;;;12.17;10.93;;;12.00;99.90;;;;;;5052022;28;20227;-69
2022/11/26 11:11:31;;;;;;;15.80;13.40;;;11.80;99.90;;;;;;5052522;28;20213;-69
2022/11/26 11:13:57;;;;;;;15.03;13.47;;;11.60;99.90;;;;;;5061426;28;20198;-68
2022/11/26 11:16:39;;;;;;;11.13;9.83;;;11.40;99.90;;;;;;5052417;28;20205;-70
2022/11/26 11:19:21;;;;;;;11.00;9.90;;;11.50;99.90;;;;;;5052609;28;20190;-69
2022/11/26 11:21:47;;;;;;;9.13;8.33;;;11.30;99.90;;;;;;5052040;28;20658;-69
2022/11/26 11:24:21;;;;;;;10.20;9.07;;;11.10;99.90;;;;;;5042318;28;20183;-70
2022/11/26 11:26:53;;;;;;;14.33;8.47;;;11.00;99.90;;;;;;5051866;28;20682;-68
2022/11/26 11:29:28;;;;;;;10.20;8.17;;;11.10;99.90;;;;;;5051994;28;20206;-69
2022/11/26 11:31:57;;;;;;;11.10;9.63;;;11.00;99.90;;;;;;5033978;28;20252;-69
2022/11/26 11:34:39;;;;;;;10.47;7.93;;;11.10;99.90;;;;;;5034176;28;20261;-69
2022/11/26 11:37:19;;;;;;;12.47;8.10;;;11.10;99.90;;;;;;5051623;28;20376;-69
2022/11/26 11:40:02;;;;;;;14.43;8.63;;;11.10;99.90;;;;;;5051931;28;20207;-69
2022/11/26 11:42:28;;;;;;;12.57;7.90;;;11.30;99.90;;;;;;5051512;28;20241;-69
2022/11/26 11:44:56;;;;;;;10.33;8.13;;;11.50;99.90;;;;;;5051860;28;20217;-69
2022/11/26 11:47:28;;;;;;;13.53;10.60;;;11.90;99.90;;;;;;5051552;28;20182;-70
2022/11/26 11:49:56;;;;;;;10.17;9.20;;;12.80;99.90;;;;;;5051768;28;20298;-70
2022/11/26 11:53:03;;;;;;;12.33;7.53;;;15.00;99.90;;;;;;5051426;28;20194;-69
2022/11/26 11:56:03;;;;;;;11.43;6.30;;;17.40;99.90;;;;;;5051038;28;20570;-70
2022/11/26 11:58:35;;;;;;;9.67;8.33;;;19.20;99.90;;;;;;5033530;28;20273;-68
2022/11/26 12:01:36;;;;;;;22.20;20.43;;;19.30;99.90;;;;;;5051884;28;20233;-71
2022/11/26 12:04:29;;;;;;;27.60;25.57;;;18.90;99.90;;;;;;5011507;28;20195;-69
2022/11/26 12:07:11;;;;;;;24.73;23.03;;;18.50;99.90;;;;;;5013644;28;20186;-68
2022/11/26 12:10:04;;;;;;;20.70;19.27;;;18.30;99.90;;;;;;5031162;28;20309;-68
2022/11/26 12:12:37;;;;;;;28.37;26.23;;;17.90;99.90;;;;;;5036876;28;20198;-69
2022/11/26 12:15:22;;;;;;;25.47;23.60;;;18.50;99.90;;;;;;5051340;28;20599;-68
2022/11/26 12:17:54;;;;;;;32.80;30.33;;;17.60;99.90;;;;;;5051083;28;20228;-69
2022/11/26 12:20:24;;;;;;;34.80;32.27;;;17.60;99.90;;;;;;5033765;28;20244;-68
2022/11/26 12:23:04;;;;;;;47.43;44.33;;;16.40;99.90;;;;;;5052901;28;20213;-69
2022/11/26 12:25:37;;;;;;;17.17;15.60;;;15.40;99.90;;;;;;5057802;28;20624;-69
2022/11/26 12:28:14;;;;;;;43.00;40.33;;;16.70;99.90;;;;;;5050860;28;20197;-68
2022/11/26 12:31:01;;;;;;;29.50;27.43;;;18.60;99.90;;;;;;5051255;28;20214;-69
2022/11/26 12:33:53;;;;;;;30.63;28.60;;;18.60;99.90;;;;;;5033211;28;20198;-69
2022/11/26 12:36:41;;;;;;;26.30;24.40;;;19.20;99.90;;;;;;5051353;28;20289;-70
2022/11/26 12:39:35;;;;;;;27.30;25.13;;;19.20;99.90;;;;;;5050986;28;20241;-70
2022/11/26 12:42:31;;;;;;;21.37;19.57;;;19.70;99.90;;;;;;5050909;28;20273;-70
2022/11/26 12:45:35;;;;;;;20.27;18.60;;;18.90;99.90;;;;;;5033155;28;20178;-70
2022/11/26 12:48:09;;;;;;;11.77;9.93;;;18.50;99.90;;;;;;5027688;28;20285;-69
2022/11/26 12:50:51;;;;;;;17.50;15.77;;;19.30;99.90;;;;;;5032949;28;20264;-69
2022/11/26 12:53:37;;;;;;;22.63;20.90;;;19.60;99.90;;;;;;5050624;28;20210;-71